sensor_id;sensor_type;location;lat;lon;timestamp;P1;durP1;ratioP1;P2;durP2;ratioP2
56285;SDS011;42191;47.562;9.686;2022-08-01T00:00:46;28.55;;;26.55;;
56285;SDS011;42191;47.562;9.686;2022-08-01T00:03:12;28.38;;;26.58;;
56285;SDS011;42191;47.562;9.686;2022-08-01T00:05:38;27.92;;;26.23;;
56285;SDS011;42191;47.562;9.686;2022-08-01T00:08:04;28.33;;;26.58;;
56285;SDS011;42191;47.562;9.686;2022-08-01T00:10:30;27.67;;;25.90;;
56285;SDS011;42191;47.562;9.686;2022-08-01T00:12:56;27.48;;;25.77;;
56285;SDS011;42191;47.562;9.686;2022-08-01T00:15:22;28.50;;;26.50;;
56285;SDS011;42191;47.562;9.686;2022-08-01T00:17:48;27.58;;;25.67;;
56285;SDS011;42191;47.562;9.686;2022-08-01T00:20:14;26.95;;;25.20;;
56285;SDS011;42191;47.562;9.686;2022-08-01T00:22:41;27.83;;;26.02;;
56285;SDS011;42191;47.562;9.686;2022-08-01T00:25:07;28.63;;;26.75;;
56285;SDS011;42191;47.562;9.686;2022-08-01T00:27:33;29.13;;;27.33;;
56285;SDS011;42191;47.562;9.686;2022-08-01T00:29:59;28.38;;;26.58;;
56285;SDS011;42191;47.562;9.686;2022-08-01T00:32:25;27.67;;;25.88;;
56285;SDS011;42191;47.562;9.686;2022-08-01T00:34:51;27.45;;;25.75;;
56285;SDS011;42191;47.562;9.686;2022-08-01T00:37:18;27.10;;;25.40;;
56285;SDS011;42191;47.562;9.686;2022-08-01T00:39:44;28.92;;;26.95;;
56285;SDS011;42191;47.562;9.686;2022-08-01T00:42:11;28.98;;;27.17;;
56285;SDS011;42191;47.562;9.686;2022-08-01T00:44:38;28.73;;;26.92;;
56285;SDS011;42191;47.562;9.686;2022-08-01T00:47:05;28.08;;;26.38;;
56285;SDS011;42191;47.562;9.686;2022-08-01T00:49:31;28.80;;;27.10;;
56285;SDS011;42191;47.562;9.686;2022-08-01T00:51:58;28.95;;;27.15;;
56285;SDS011;42191;47.562;9.686;2022-08-01T00:54:25;29.30;;;27.33;;
56285;SDS011;42191;47.562;9.686;2022-08-01T00:56:52;28.70;;;26.70;;
56285;SDS011;42191;47.562;9.686;2022-08-01T00:59:20;27.48;;;25.77;;
56285;SDS011;42191;47.562;9.686;2022-08-01T01:01:47;27.80;;;26.05;;
56285;SDS011;42191;47.562;9.686;2022-08-01T01:04:14;27.70;;;25.95;;
56285;SDS011;42191;47.562;9.686;2022-08-01T01:09:31;28.08;;;26.38;;
56285;SDS011;42191;47.562;9.686;2022-08-01T01:12:19;28.70;;;26.58;;
56285;SDS011;42191;47.562;9.686;2022-08-01T01:15:10;28.25;;;26.55;;
56285;SDS011;42191;47.562;9.686;2022-08-01T01:17:46;29.08;;;27.17;;
56285;SDS011;42191;47.562;9.686;2022-08-01T01:20:36;29.38;;;27.45;;
56285;SDS011;42191;47.562;9.686;2022-08-01T01:23:21;28.88;;;27.08;;
56285;SDS011;42191;47.562;9.686;2022-08-01T01:29:06;28.67;;;26.88;;
56285;SDS011;42191;47.562;9.686;2022-08-01T01:31:55;28.35;;;26.55;;
56285;SDS011;42191;47.562;9.686;2022-08-01T01:34:31;30.13;;;28.13;;
56285;SDS011;42191;47.562;9.686;2022-08-01T01:37:01;29.00;;;26.55;;
56285;SDS011;42191;47.562;9.686;2022-08-01T01:39:29;27.10;;;25.48;;
56285;SDS011;42191;47.562;9.686;2022-08-01T01:41:57;28.48;;;26.65;;
56285;SDS011;42191;47.562;9.686;2022-08-01T01:44:25;28.27;;;26.50;;
56285;SDS011;42191;47.562;9.686;2022-08-01T01:46:52;28.70;;;26.80;;
56285;SDS011;42191;47.562;9.686;2022-08-01T01:49:21;28.77;;;26.98;;
56285;SDS011;42191;47.562;9.686;2022-08-01T01:51:51;29.10;;;27.30;;
56285;SDS011;42191;47.562;9.686;2022-08-01T01:54:22;28.90;;;27.02;;
56285;SDS011;42191;47.562;9.686;2022-08-01T01:56:52;28.93;;;27.10;;
56285;SDS011;42191;47.562;9.686;2022-08-01T01:59:27;28.58;;;26.77;;
56285;SDS011;42191;47.562;9.686;2022-08-01T02:01:57;28.80;;;26.98;;
56285;SDS011;42191;47.562;9.686;2022-08-01T02:04:26;27.42;;;25.73;;
56285;SDS011;42191;47.562;9.686;2022-08-01T02:06:53;29.25;;;27.45;;
56285;SDS011;42191;47.562;9.686;2022-08-01T02:09:21;28.85;;;26.95;;
56285;SDS011;42191;47.562;9.686;2022-08-01T02:11:48;29.10;;;26.92;;
56285;SDS011;42191;47.562;9.686;2022-08-01T02:14:16;28.75;;;26.95;;
56285;SDS011;42191;47.562;9.686;2022-08-01T02:16:45;27.90;;;26.05;;
56285;SDS011;42191;47.562;9.686;2022-08-01T02:19:14;28.83;;;27.02;;
56285;SDS011;42191;47.562;9.686;2022-08-01T02:21:57;29.65;;;27.45;;
56285;SDS011;42191;47.562;9.686;2022-08-01T02:26:55;29.90;;;27.65;;
56285;SDS011;42191;47.562;9.686;2022-08-01T02:30:08;28.55;;;26.75;;
56285;SDS011;42191;47.562;9.686;2022-08-01T02:32:24;27.30;;;25.60;;
56285;SDS011;42191;47.562;9.686;2022-08-01T02:35:07;28.80;;;27.00;;
56285;SDS011;42191;47.562;9.686;2022-08-01T02:37:37;29.13;;;27.33;;
56285;SDS011;42191;47.562;9.686;2022-08-01T02:40:05;29.20;;;27.40;;
56285;SDS011;42191;47.562;9.686;2022-08-01T02:42:34;29.95;;;28.10;;
56285;SDS011;42191;47.562;9.686;2022-08-01T02:45:02;29.48;;;27.58;;
56285;SDS011;42191;47.562;9.686;2022-08-01T02:47:33;29.42;;;27.63;;
56285;SDS011;42191;47.562;9.686;2022-08-01T02:50:00;29.73;;;27.92;;
56285;SDS011;42191;47.562;9.686;2022-08-01T02:52:28;28.00;;;26.27;;
56285;SDS011;42191;47.562;9.686;2022-08-01T02:54:56;29.98;;;27.70;;
56285;SDS011;42191;47.562;9.686;2022-08-01T02:57:24;29.20;;;27.40;;
56285;SDS011;42191;47.562;9.686;2022-08-01T02:59:51;30.25;;;28.15;;
56285;SDS011;42191;47.562;9.686;2022-08-01T03:02:20;29.77;;;27.88;;
56285;SDS011;42191;47.562;9.686;2022-08-01T03:04:48;29.48;;;27.58;;
56285;SDS011;42191;47.562;9.686;2022-08-01T03:07:16;29.10;;;27.30;;
56285;SDS011;42191;47.562;9.686;2022-08-01T03:09:44;29.70;;;27.90;;
56285;SDS011;42191;47.562;9.686;2022-08-01T03:12:13;30.25;;;28.17;;
56285;SDS011;42191;47.562;9.686;2022-08-01T03:14:42;30.25;;;28.35;;
56285;SDS011;42191;47.562;9.686;2022-08-01T03:17:10;29.35;;;27.40;;
56285;SDS011;42191;47.562;9.686;2022-08-01T03:19:37;30.33;;;28.27;;
56285;SDS011;42191;47.562;9.686;2022-08-01T03:22:06;30.55;;;28.40;;
56285;SDS011;42191;47.562;9.686;2022-08-01T03:24:34;29.83;;;27.92;;
56285;SDS011;42191;47.562;9.686;2022-08-01T03:27:03;29.67;;;27.88;;
56285;SDS011;42191;47.562;9.686;2022-08-01T03:29:30;30.48;;;28.48;;
56285;SDS011;42191;47.562;9.686;2022-08-01T03:31:58;30.88;;;28.85;;
56285;SDS011;42191;47.562;9.686;2022-08-01T03:34:26;29.20;;;27.30;;
56285;SDS011;42191;47.562;9.686;2022-08-01T03:36:58;29.80;;;27.98;;
56285;SDS011;42191;47.562;9.686;2022-08-01T03:40:02;29.80;;;27.90;;
56285;SDS011;42191;47.562;9.686;2022-08-01T03:42:39;29.80;;;27.88;;
56285;SDS011;42191;47.562;9.686;2022-08-01T03:45:18;30.02;;;27.92;;
56285;SDS011;42191;47.562;9.686;2022-08-01T03:47:47;31.08;;;29.08;;
56285;SDS011;42191;47.562;9.686;2022-08-01T03:50:18;29.15;;;27.25;;
56285;SDS011;42191;47.562;9.686;2022-08-01T03:52:47;30.73;;;28.73;;
56285;SDS011;42191;47.562;9.686;2022-08-01T03:55:14;30.60;;;28.60;;
56285;SDS011;42191;47.562;9.686;2022-08-01T03:57:42;29.73;;;27.83;;
56285;SDS011;42191;47.562;9.686;2022-08-01T04:00:09;29.98;;;28.00;;
56285;SDS011;42191;47.562;9.686;2022-08-01T04:02:36;30.85;;;28.30;;
56285;SDS011;42191;47.562;9.686;2022-08-01T04:05:03;29.55;;;27.75;;
56285;SDS011;42191;47.562;9.686;2022-08-01T04:07:30;29.95;;;27.90;;
56285;SDS011;42191;47.562;9.686;2022-08-01T04:09:57;30.38;;;28.38;;
56285;SDS011;42191;47.562;9.686;2022-08-01T04:12:24;30.00;;;28.10;;
56285;SDS011;42191;47.562;9.686;2022-08-01T04:14:50;30.08;;;28.13;;
56285;SDS011;42191;47.562;9.686;2022-08-01T04:17:16;28.92;;;27.02;;
56285;SDS011;42191;47.562;9.686;2022-08-01T04:19:43;30.33;;;28.42;;
56285;SDS011;42191;47.562;9.686;2022-08-01T04:22:10;29.70;;;27.73;;
56285;SDS011;42191;47.562;9.686;2022-08-01T04:24:38;29.98;;;28.10;;
56285;SDS011;42191;47.562;9.686;2022-08-01T04:27:09;29.83;;;27.83;;
56285;SDS011;42191;47.562;9.686;2022-08-01T04:29:38;28.85;;;26.85;;
56285;SDS011;42191;47.562;9.686;2022-08-01T04:32:06;29.20;;;27.30;;
56285;SDS011;42191;47.562;9.686;2022-08-01T04:34:35;30.67;;;28.70;;
56285;SDS011;42191;47.562;9.686;2022-08-01T04:37:05;31.80;;;29.55;;
56285;SDS011;42191;47.562;9.686;2022-08-01T04:39:35;30.85;;;29.00;;
56285;SDS011;42191;47.562;9.686;2022-08-01T04:42:03;30.45;;;28.55;;
56285;SDS011;42191;47.562;9.686;2022-08-01T04:44:31;29.10;;;27.33;;
56285;SDS011;42191;47.562;9.686;2022-08-01T04:46:58;28.50;;;26.65;;
56285;SDS011;42191;47.562;9.686;2022-08-01T04:49:28;29.63;;;27.65;;
56285;SDS011;42191;47.562;9.686;2022-08-01T04:51:58;29.45;;;27.65;;
56285;SDS011;42191;47.562;9.686;2022-08-01T04:54:28;28.65;;;26.95;;
56285;SDS011;42191;47.562;9.686;2022-08-01T04:56:55;29.15;;;27.25;;
56285;SDS011;42191;47.562;9.686;2022-08-01T04:59:31;28.83;;;27.02;;
56285;SDS011;42191;47.562;9.686;2022-08-01T05:02:10;28.88;;;27.08;;
56285;SDS011;42191;47.562;9.686;2022-08-01T05:04:42;29.33;;;27.52;;
56285;SDS011;42191;47.562;9.686;2022-08-01T05:07:09;30.10;;;27.92;;
56285;SDS011;42191;47.562;9.686;2022-08-01T05:09:36;29.70;;;27.85;;
56285;SDS011;42191;47.562;9.686;2022-08-01T05:12:04;30.77;;;28.77;;
56285;SDS011;42191;47.562;9.686;2022-08-01T05:14:31;28.75;;;26.95;;
56285;SDS011;42191;47.562;9.686;2022-08-01T05:17:03;28.35;;;26.48;;
56285;SDS011;42191;47.562;9.686;2022-08-01T05:19:31;30.30;;;28.40;;
56285;SDS011;42191;47.562;9.686;2022-08-01T05:22:01;29.77;;;27.80;;
56285;SDS011;42191;47.562;9.686;2022-08-01T05:24:30;29.15;;;27.38;;
56285;SDS011;42191;47.562;9.686;2022-08-01T05:26:57;30.02;;;28.08;;
56285;SDS011;42191;47.562;9.686;2022-08-01T05:29:23;29.48;;;27.45;;
56285;SDS011;42191;47.562;9.686;2022-08-01T05:31:50;30.02;;;28.08;;
56285;SDS011;42191;47.562;9.686;2022-08-01T05:34:17;29.75;;;27.85;;
56285;SDS011;42191;47.562;9.686;2022-08-01T05:36:44;29.75;;;27.95;;
56285;SDS011;42191;47.562;9.686;2022-08-01T05:39:10;29.85;;;27.95;;
56285;SDS011;42191;47.562;9.686;2022-08-01T05:41:37;29.80;;;27.90;;
56285;SDS011;42191;47.562;9.686;2022-08-01T05:44:04;30.02;;;27.90;;
56285;SDS011;42191;47.562;9.686;2022-08-01T05:46:30;30.77;;;28.50;;
56285;SDS011;42191;47.562;9.686;2022-08-01T05:48:57;30.25;;;28.25;;
56285;SDS011;42191;47.562;9.686;2022-08-01T05:51:24;29.52;;;27.60;;
56285;SDS011;42191;47.562;9.686;2022-08-01T05:53:51;30.40;;;28.50;;
56285;SDS011;42191;47.562;9.686;2022-08-01T05:56:17;29.90;;;28.05;;
56285;SDS011;42191;47.562;9.686;2022-08-01T05:58:44;29.55;;;27.42;;
56285;SDS011;42191;47.562;9.686;2022-08-01T06:01:10;30.17;;;28.23;;
56285;SDS011;42191;47.562;9.686;2022-08-01T06:03:36;29.27;;;27.48;;
56285;SDS011;42191;47.562;9.686;2022-08-01T06:06:02;29.50;;;27.48;;
56285;SDS011;42191;47.562;9.686;2022-08-01T06:08:29;29.92;;;28.00;;
56285;SDS011;42191;47.562;9.686;2022-08-01T06:10:56;30.10;;;28.10;;
56285;SDS011;42191;47.562;9.686;2022-08-01T06:13:22;29.85;;;27.95;;
56285;SDS011;42191;47.562;9.686;2022-08-01T06:15:48;30.38;;;28.33;;
56285;SDS011;42191;47.562;9.686;2022-08-01T06:18:15;28.65;;;26.85;;
56285;SDS011;42191;47.562;9.686;2022-08-01T06:20:41;28.58;;;26.77;;
56285;SDS011;42191;47.562;9.686;2022-08-01T06:23:08;29.13;;;27.02;;
56285;SDS011;42191;47.562;9.686;2022-08-01T06:25:34;29.45;;;27.55;;
56285;SDS011;42191;47.562;9.686;2022-08-01T06:28:00;29.25;;;27.33;;
56285;SDS011;42191;47.562;9.686;2022-08-01T06:30:27;30.08;;;27.98;;
56285;SDS011;42191;47.562;9.686;2022-08-01T06:32:53;30.10;;;28.00;;
56285;SDS011;42191;47.562;9.686;2022-08-01T06:35:23;29.17;;;27.33;;
56285;SDS011;42191;47.562;9.686;2022-08-01T06:37:49;29.58;;;27.48;;
56285;SDS011;42191;47.562;9.686;2022-08-01T06:40:15;29.27;;;27.48;;
56285;SDS011;42191;47.562;9.686;2022-08-01T06:42:42;29.92;;;27.98;;
56285;SDS011;42191;47.562;9.686;2022-08-01T06:45:11;29.30;;;27.50;;
56285;SDS011;42191;47.562;9.686;2022-08-01T06:47:39;28.05;;;26.25;;
56285;SDS011;42191;47.562;9.686;2022-08-01T06:50:06;28.95;;;27.15;;
56285;SDS011;42191;47.562;9.686;2022-08-01T06:52:33;29.90;;;27.77;;
56285;SDS011;42191;47.562;9.686;2022-08-01T06:55:00;29.60;;;27.70;;
56285;SDS011;42191;47.562;9.686;2022-08-01T06:57:26;29.05;;;27.08;;
56285;SDS011;42191;47.562;9.686;2022-08-01T06:59:53;28.85;;;27.05;;
56285;SDS011;42191;47.562;9.686;2022-08-01T07:02:19;29.80;;;27.90;;
56285;SDS011;42191;47.562;9.686;2022-08-01T07:04:45;29.40;;;27.45;;
56285;SDS011;42191;47.562;9.686;2022-08-01T07:07:11;29.15;;;27.25;;
56285;SDS011;42191;47.562;9.686;2022-08-01T07:09:37;29.33;;;27.42;;
56285;SDS011;42191;47.562;9.686;2022-08-01T07:12:06;30.02;;;27.73;;
56285;SDS011;42191;47.562;9.686;2022-08-01T07:14:32;30.13;;;28.13;;
56285;SDS011;42191;47.562;9.686;2022-08-01T07:16:58;28.20;;;26.50;;
56285;SDS011;42191;47.562;9.686;2022-08-01T07:19:25;29.70;;;27.50;;
56285;SDS011;42191;47.562;9.686;2022-08-01T07:21:52;30.30;;;27.85;;
56285;SDS011;42191;47.562;9.686;2022-08-01T07:24:18;29.48;;;27.60;;
56285;SDS011;42191;47.562;9.686;2022-08-01T07:26:45;29.27;;;27.48;;
56285;SDS011;42191;47.562;9.686;2022-08-01T07:29:12;29.63;;;27.73;;
56285;SDS011;42191;47.562;9.686;2022-08-01T07:31:39;29.58;;;27.67;;
56285;SDS011;42191;47.562;9.686;2022-08-01T07:34:05;28.77;;;26.88;;
56285;SDS011;42191;47.562;9.686;2022-08-01T07:36:31;29.23;;;27.42;;
56285;SDS011;42191;47.562;9.686;2022-08-01T07:38:57;30.48;;;28.48;;
56285;SDS011;42191;47.562;9.686;2022-08-01T07:41:23;29.55;;;27.65;;
56285;SDS011;42191;47.562;9.686;2022-08-01T07:43:49;29.73;;;27.83;;
56285;SDS011;42191;47.562;9.686;2022-08-01T07:46:15;28.92;;;27.13;;
56285;SDS011;42191;47.562;9.686;2022-08-01T07:48:42;29.88;;;27.83;;
56285;SDS011;42191;47.562;9.686;2022-08-01T07:51:08;29.15;;;27.27;;
56285;SDS011;42191;47.562;9.686;2022-08-01T07:53:35;29.27;;;27.38;;
56285;SDS011;42191;47.562;9.686;2022-08-01T07:56:01;29.63;;;27.63;;
56285;SDS011;42191;47.562;9.686;2022-08-01T07:58:30;29.42;;;27.52;;
56285;SDS011;42191;47.562;9.686;2022-08-01T08:00:57;29.13;;;27.08;;
56285;SDS011;42191;47.562;9.686;2022-08-01T08:03:23;27.67;;;25.98;;
56285;SDS011;42191;47.562;9.686;2022-08-01T08:05:49;28.85;;;26.95;;
56285;SDS011;42191;47.562;9.686;2022-08-01T08:08:16;29.83;;;27.73;;
56285;SDS011;42191;47.562;9.686;2022-08-01T08:10:43;28.95;;;27.08;;
56285;SDS011;42191;47.562;9.686;2022-08-01T08:13:09;28.90;;;27.10;;
56285;SDS011;42191;47.562;9.686;2022-08-01T08:15:35;28.65;;;26.55;;
56285;SDS011;42191;47.562;9.686;2022-08-01T08:18:04;29.40;;;27.58;;
56285;SDS011;42191;47.562;9.686;2022-08-01T08:20:31;28.77;;;26.95;;
56285;SDS011;42191;47.562;9.686;2022-08-01T08:22:57;29.70;;;27.75;;
56285;SDS011;42191;47.562;9.686;2022-08-01T08:25:24;29.35;;;27.35;;
56285;SDS011;42191;47.562;9.686;2022-08-01T08:27:50;28.27;;;26.55;;
56285;SDS011;42191;47.562;9.686;2022-08-01T08:30:17;27.95;;;26.15;;
56285;SDS011;42191;47.562;9.686;2022-08-01T08:32:43;28.48;;;26.60;;
56285;SDS011;42191;47.562;9.686;2022-08-01T08:35:09;29.13;;;27.30;;
56285;SDS011;42191;47.562;9.686;2022-08-01T08:37:36;27.95;;;26.23;;
56285;SDS011;42191;47.562;9.686;2022-08-01T08:40:02;29.52;;;27.42;;
56285;SDS011;42191;47.562;9.686;2022-08-01T08:42:30;29.20;;;27.33;;
56285;SDS011;42191;47.562;9.686;2022-08-01T08:44:56;28.52;;;26.73;;
56285;SDS011;42191;47.562;9.686;2022-08-01T08:47:23;28.60;;;26.80;;
56285;SDS011;42191;47.562;9.686;2022-08-01T08:49:51;28.02;;;26.33;;
56285;SDS011;42191;47.562;9.686;2022-08-01T08:52:21;28.30;;;26.58;;
56285;SDS011;42191;47.562;9.686;2022-08-01T08:54:48;28.52;;;26.63;;
56285;SDS011;42191;47.562;9.686;2022-08-01T08:57:17;29.58;;;27.75;;
56285;SDS011;42191;47.562;9.686;2022-08-01T08:59:44;28.48;;;26.58;;
56285;SDS011;42191;47.562;9.686;2022-08-01T09:02:11;28.40;;;26.60;;
56285;SDS011;42191;47.562;9.686;2022-08-01T09:04:37;28.58;;;26.77;;
56285;SDS011;42191;47.562;9.686;2022-08-01T09:07:05;28.65;;;26.85;;
56285;SDS011;42191;47.562;9.686;2022-08-01T09:09:32;28.98;;;26.85;;
56285;SDS011;42191;47.562;9.686;2022-08-01T09:11:59;29.42;;;26.98;;
56285;SDS011;42191;47.562;9.686;2022-08-01T09:14:26;29.35;;;27.02;;
56285;SDS011;42191;47.562;9.686;2022-08-01T09:17:01;29.20;;;27.40;;
56285;SDS011;42191;47.562;9.686;2022-08-01T09:19:40;28.75;;;26.88;;
56285;SDS011;42191;47.562;9.686;2022-08-01T09:22:12;28.45;;;26.55;;
56285;SDS011;42191;47.562;9.686;2022-08-01T09:24:56;29.02;;;27.20;;
56285;SDS011;42191;47.562;9.686;2022-08-01T09:27:22;29.05;;;27.25;;
56285;SDS011;42191;47.562;9.686;2022-08-01T09:29:50;29.05;;;27.25;;
56285;SDS011;42191;47.562;9.686;2022-08-01T09:32:18;29.17;;;27.27;;
56285;SDS011;42191;47.562;9.686;2022-08-01T09:34:44;29.33;;;27.35;;
56285;SDS011;42191;47.562;9.686;2022-08-01T09:37:11;30.15;;;28.13;;
56285;SDS011;42191;47.562;9.686;2022-08-01T09:39:42;30.10;;;28.20;;
56285;SDS011;42191;47.562;9.686;2022-08-01T09:42:23;29.60;;;27.70;;
56285;SDS011;42191;47.562;9.686;2022-08-01T09:44:51;29.23;;;27.30;;
56285;SDS011;42191;47.562;9.686;2022-08-01T09:47:18;28.23;;;26.42;;
56285;SDS011;42191;47.562;9.686;2022-08-01T09:49:55;27.95;;;26.10;;
56285;SDS011;42191;47.562;9.686;2022-08-01T09:52:24;29.65;;;27.75;;
56285;SDS011;42191;47.562;9.686;2022-08-01T09:54:53;29.45;;;27.45;;
56285;SDS011;42191;47.562;9.686;2022-08-01T09:57:24;28.48;;;26.67;;
56285;SDS011;42191;47.562;9.686;2022-08-01T09:59:53;28.33;;;26.42;;
56285;SDS011;42191;47.562;9.686;2022-08-01T10:02:31;28.73;;;26.92;;
56285;SDS011;42191;47.562;9.686;2022-08-01T10:04:59;28.75;;;26.95;;
56285;SDS011;42191;47.562;9.686;2022-08-01T10:07:27;28.67;;;26.90;;
56285;SDS011;42191;47.562;9.686;2022-08-01T10:09:53;28.80;;;27.00;;
56285;SDS011;42191;47.562;9.686;2022-08-01T10:12:20;28.25;;;26.50;;
56285;SDS011;42191;47.562;9.686;2022-08-01T10:14:49;28.38;;;26.55;;
56285;SDS011;42191;47.562;9.686;2022-08-01T10:17:20;28.00;;;26.30;;
56285;SDS011;42191;47.562;9.686;2022-08-01T10:19:50;28.05;;;26.35;;
56285;SDS011;42191;47.562;9.686;2022-08-01T10:22:19;29.05;;;27.25;;
56285;SDS011;42191;47.562;9.686;2022-08-01T10:24:50;28.25;;;26.45;;
56285;SDS011;42191;47.562;9.686;2022-08-01T10:27:20;28.50;;;26.60;;
56285;SDS011;42191;47.562;9.686;2022-08-01T10:29:58;28.27;;;26.38;;
56285;SDS011;42191;47.562;9.686;2022-08-01T10:32:33;28.17;;;26.45;;
56285;SDS011;42191;47.562;9.686;2022-08-01T10:35:00;28.58;;;26.67;;
56285;SDS011;42191;47.562;9.686;2022-08-01T10:37:28;28.70;;;26.90;;
56285;SDS011;42191;47.562;9.686;2022-08-01T10:39:54;28.35;;;26.55;;
56285;SDS011;42191;47.562;9.686;2022-08-01T10:42:21;28.55;;;26.75;;
56285;SDS011;42191;47.562;9.686;2022-08-01T10:44:48;27.40;;;25.60;;
56285;SDS011;42191;47.562;9.686;2022-08-01T10:47:15;28.38;;;26.38;;
56285;SDS011;42191;47.562;9.686;2022-08-01T10:49:58;28.50;;;26.58;;
56285;SDS011;42191;47.562;9.686;2022-08-01T10:52:29;27.60;;;25.90;;
56285;SDS011;42191;47.562;9.686;2022-08-01T10:55:08;27.05;;;25.35;;
56285;SDS011;42191;47.562;9.686;2022-08-01T10:57:47;27.55;;;25.85;;
56285;SDS011;42191;47.562;9.686;2022-08-01T11:00:17;27.50;;;25.60;;
56285;SDS011;42191;47.562;9.686;2022-08-01T11:02:56;27.25;;;25.55;;
56285;SDS011;42191;47.562;9.686;2022-08-01T11:05:25;28.30;;;25.42;;
56285;SDS011;42191;47.562;9.686;2022-08-01T11:07:55;26.38;;;24.67;;
56285;SDS011;42191;47.562;9.686;2022-08-01T11:10:27;26.35;;;24.75;;
56285;SDS011;42191;47.562;9.686;2022-08-01T11:13:01;26.20;;;24.40;;
56285;SDS011;42191;47.562;9.686;2022-08-01T11:15:32;26.92;;;25.23;;
56285;SDS011;42191;47.562;9.686;2022-08-01T11:17:59;26.83;;;25.13;;
56285;SDS011;42191;47.562;9.686;2022-08-01T11:20:29;27.27;;;25.58;;
56285;SDS011;42191;47.562;9.686;2022-08-01T11:28:16;26.33;;;24.55;;
56285;SDS011;42191;47.562;9.686;2022-08-01T11:30:53;26.08;;;24.48;;
56285;SDS011;42191;47.562;9.686;2022-08-01T11:39:11;25.30;;;23.65;;
56285;SDS011;42191;47.562;9.686;2022-08-01T11:41:36;24.95;;;23.45;;
56285;SDS011;42191;47.562;9.686;2022-08-01T11:44:03;25.55;;;23.85;;
56285;SDS011;42191;47.562;9.686;2022-08-01T11:49:28;25.80;;;24.17;;
56285;SDS011;42191;47.562;9.686;2022-08-01T11:54:28;25.55;;;23.95;;
56285;SDS011;42191;47.562;9.686;2022-08-01T11:56:57;24.88;;;23.38;;
56285;SDS011;42191;47.562;9.686;2022-08-01T11:59:25;26.48;;;24.67;;
56285;SDS011;42191;47.562;9.686;2022-08-01T12:01:51;26.30;;;24.60;;
56285;SDS011;42191;47.562;9.686;2022-08-01T12:04:18;26.15;;;24.50;;
56285;SDS011;42191;47.562;9.686;2022-08-01T12:06:44;26.15;;;24.55;;
56285;SDS011;42191;47.562;9.686;2022-08-01T12:09:15;25.27;;;23.67;;
56285;SDS011;42191;47.562;9.686;2022-08-01T12:11:42;25.65;;;24.05;;
56285;SDS011;42191;47.562;9.686;2022-08-01T12:14:08;24.88;;;23.38;;
56285;SDS011;42191;47.562;9.686;2022-08-01T12:16:35;26.25;;;24.58;;
56285;SDS011;42191;47.562;9.686;2022-08-01T12:19:02;26.25;;;24.17;;
56285;SDS011;42191;47.562;9.686;2022-08-01T12:21:28;25.88;;;24.08;;
56285;SDS011;42191;47.562;9.686;2022-08-01T12:24:01;25.17;;;23.45;;
56285;SDS011;42191;47.562;9.686;2022-08-01T12:26:40;25.33;;;23.70;;
56285;SDS011;42191;47.562;9.686;2022-08-01T12:29:07;25.23;;;23.58;;
56285;SDS011;42191;47.562;9.686;2022-08-01T12:31:33;25.65;;;24.05;;
56285;SDS011;42191;47.562;9.686;2022-08-01T12:36:56;24.95;;;23.33;;
56285;SDS011;42191;47.562;9.686;2022-08-01T12:39:33;26.00;;;24.10;;
56285;SDS011;42191;47.562;9.686;2022-08-01T12:42:00;25.52;;;23.83;;
56285;SDS011;42191;47.562;9.686;2022-08-01T12:44:27;25.15;;;23.65;;
56285;SDS011;42191;47.562;9.686;2022-08-01T12:46:55;25.00;;;23.50;;
56285;SDS011;42191;47.562;9.686;2022-08-01T12:49:21;25.02;;;23.38;;
56285;SDS011;42191;47.562;9.686;2022-08-01T12:51:49;24.88;;;23.38;;
56285;SDS011;42191;47.562;9.686;2022-08-01T12:54:16;24.52;;;23.02;;
56285;SDS011;42191;47.562;9.686;2022-08-01T12:56:42;25.58;;;24.08;;
56285;SDS011;42191;47.562;9.686;2022-08-01T12:59:21;25.02;;;23.52;;
56285;SDS011;42191;47.562;9.686;2022-08-01T13:01:53;25.20;;;23.60;;
56285;SDS011;42191;47.562;9.686;2022-08-01T13:04:20;25.45;;;23.85;;
56285;SDS011;42191;47.562;9.686;2022-08-01T13:06:47;24.67;;;23.17;;
56285;SDS011;42191;47.562;9.686;2022-08-01T13:09:17;25.75;;;24.15;;
56285;SDS011;42191;47.562;9.686;2022-08-01T13:11:44;25.67;;;24.05;;
56285;SDS011;42191;47.562;9.686;2022-08-01T13:14:27;24.90;;;23.30;;
56285;SDS011;42191;47.562;9.686;2022-08-01T13:16:54;24.63;;;23.13;;
56285;SDS011;42191;47.562;9.686;2022-08-01T13:19:21;25.15;;;23.45;;
56285;SDS011;42191;47.562;9.686;2022-08-01T13:22:06;23.55;;;21.95;;
56285;SDS011;42191;47.562;9.686;2022-08-01T13:24:32;23.13;;;21.63;;
56285;SDS011;42191;47.562;9.686;2022-08-01T13:26:58;22.67;;;21.17;;
56285;SDS011;42191;47.562;9.686;2022-08-01T13:29:32;22.40;;;20.90;;
56285;SDS011;42191;47.562;9.686;2022-08-01T13:32:00;21.42;;;19.67;;
56285;SDS011;42191;47.562;9.686;2022-08-01T13:34:38;20.35;;;19.02;;
56285;SDS011;42191;47.562;9.686;2022-08-01T13:37:04;20.08;;;18.88;;
56285;SDS011;42191;47.562;9.686;2022-08-01T13:39:30;20.15;;;18.95;;
56285;SDS011;42191;47.562;9.686;2022-08-01T13:42:06;19.92;;;18.52;;
56285;SDS011;42191;47.562;9.686;2022-08-01T13:44:35;19.65;;;18.40;;
56285;SDS011;42191;47.562;9.686;2022-08-01T13:47:02;19.50;;;18.30;;
56285;SDS011;42191;47.562;9.686;2022-08-01T13:49:29;20.00;;;18.75;;
56285;SDS011;42191;47.562;9.686;2022-08-01T13:51:56;19.30;;;18.10;;
56285;SDS011;42191;47.562;9.686;2022-08-01T13:54:22;19.05;;;17.95;;
56285;SDS011;42191;47.562;9.686;2022-08-01T13:56:49;19.75;;;18.35;;
56285;SDS011;42191;47.562;9.686;2022-08-01T13:59:16;19.55;;;18.35;;
56285;SDS011;42191;47.562;9.686;2022-08-01T14:01:42;19.85;;;18.52;;
56285;SDS011;42191;47.562;9.686;2022-08-01T14:04:08;19.80;;;18.40;;
56285;SDS011;42191;47.562;9.686;2022-08-01T14:06:34;19.48;;;18.27;;
56285;SDS011;42191;47.562;9.686;2022-08-01T14:09:01;19.90;;;18.70;;
56285;SDS011;42191;47.562;9.686;2022-08-01T14:11:28;19.38;;;18.23;;
56285;SDS011;42191;47.562;9.686;2022-08-01T14:13:54;19.23;;;18.02;;
56285;SDS011;42191;47.562;9.686;2022-08-01T14:16:20;19.42;;;18.23;;
56285;SDS011;42191;47.562;9.686;2022-08-01T14:18:46;19.48;;;18.17;;
56285;SDS011;42191;47.562;9.686;2022-08-01T14:21:12;20.10;;;18.80;;
56285;SDS011;42191;47.562;9.686;2022-08-01T14:23:39;19.67;;;18.40;;
56285;SDS011;42191;47.562;9.686;2022-08-01T14:26:07;19.70;;;18.50;;
56285;SDS011;42191;47.562;9.686;2022-08-01T14:28:34;19.52;;;18.33;;
56285;SDS011;42191;47.562;9.686;2022-08-01T14:31:01;19.63;;;18.33;;
56285;SDS011;42191;47.562;9.686;2022-08-01T14:33:28;19.50;;;18.30;;
56285;SDS011;42191;47.562;9.686;2022-08-01T14:35:55;19.90;;;18.70;;
56285;SDS011;42191;47.562;9.686;2022-08-01T14:38:22;19.67;;;18.33;;
56285;SDS011;42191;47.562;9.686;2022-08-01T14:40:48;19.55;;;18.35;;
56285;SDS011;42191;47.562;9.686;2022-08-01T14:43:16;19.50;;;18.25;;
56285;SDS011;42191;47.562;9.686;2022-08-01T14:45:43;20.08;;;18.42;;
56285;SDS011;42191;47.562;9.686;2022-08-01T14:48:09;19.73;;;18.30;;
56285;SDS011;42191;47.562;9.686;2022-08-01T14:50:35;20.13;;;18.88;;
56285;SDS011;42191;47.562;9.686;2022-08-01T14:53:02;19.73;;;18.52;;
56285;SDS011;42191;47.562;9.686;2022-08-01T14:55:28;19.80;;;18.60;;
56285;SDS011;42191;47.562;9.686;2022-08-01T14:57:54;19.90;;;18.60;;